sensor_id;sensor_type;location;lat;lon;timestamp;P1;durP1;ratioP1;P2;durP2;ratioP2
3712;SDS011;1872;51.406;6.856;2022-12-26T00:01:30;8.30;;;6.07;;
3712;SDS011;1872;51.406;6.856;2022-12-26T00:03:57;7.10;;;5.60;;
3712;SDS011;1872;51.406;6.856;2022-12-26T00:06:26;7.17;;;6.50;;
3712;SDS011;1872;51.406;6.856;2022-12-26T00:08:53;8.67;;;6.97;;
3712;SDS011;1872;51.406;6.856;2022-12-26T00:11:20;11.03;;;7.20;;
3712;SDS011;1872;51.406;6.856;2022-12-26T00:13:47;9.20;;;7.33;;
3712;SDS011;1872;51.406;6.856;2022-12-26T00:16:18;9.60;;;7.37;;
3712;SDS011;1872;51.406;6.856;2022-12-26T00:18:45;8.30;;;7.00;;
3712;SDS011;1872;51.406;6.856;2022-12-26T00:21:12;6.13;;;5.53;;
3712;SDS011;1872;51.406;6.856;2022-12-26T00:23:40;8.87;;;7.70;;
3712;SDS011;1872;51.406;6.856;2022-12-26T00:26:10;10.77;;;6.70;;
3712;SDS011;1872;51.406;6.856;2022-12-26T00:28:43;8.53;;;6.10;;
3712;SDS011;1872;51.406;6.856;2022-12-26T00:31:13;8.40;;;5.80;;
3712;SDS011;1872;51.406;6.856;2022-12-26T00:33:41;5.77;;;4.97;;
3712;SDS011;1872;51.406;6.856;2022-12-26T00:36:08;7.40;;;5.03;;
3712;SDS011;1872;51.406;6.856;2022-12-26T00:38:39;4.70;;;4.30;;
3712;SDS011;1872;51.406;6.856;2022-12-26T00:41:06;5.43;;;4.87;;
3712;SDS011;1872;51.406;6.856;2022-12-26T00:43:32;5.77;;;4.60;;
3712;SDS011;1872;51.406;6.856;2022-12-26T00:45:58;4.67;;;3.90;;
3712;SDS011;1872;51.406;6.856;2022-12-26T00:48:24;4.40;;;4.00;;
3712;SDS011;1872;51.406;6.856;2022-12-26T00:50:50;5.97;;;4.33;;
3712;SDS011;1872;51.406;6.856;2022-12-26T00:53:16;5.00;;;4.50;;
3712;SDS011;1872;51.406;6.856;2022-12-26T00:55:42;8.50;;;6.27;;
3712;SDS011;1872;51.406;6.856;2022-12-26T00:58:07;7.07;;;6.17;;
3712;SDS011;1872;51.406;6.856;2022-12-26T01:00:33;6.97;;;5.70;;
3712;SDS011;1872;51.406;6.856;2022-12-26T01:02:59;9.60;;;6.50;;
3712;SDS011;1872;51.406;6.856;2022-12-26T01:05:25;8.40;;;6.53;;
3712;SDS011;1872;51.406;6.856;2022-12-26T01:07:51;7.63;;;6.03;;
3712;SDS011;1872;51.406;6.856;2022-12-26T01:10:16;8.13;;;6.20;;
3712;SDS011;1872;51.406;6.856;2022-12-26T01:12:42;10.30;;;5.20;;
3712;SDS011;1872;51.406;6.856;2022-12-26T01:15:08;7.00;;;4.97;;
3712;SDS011;1872;51.406;6.856;2022-12-26T01:17:34;7.07;;;5.03;;
3712;SDS011;1872;51.406;6.856;2022-12-26T01:20:00;5.50;;;4.20;;
3712;SDS011;1872;51.406;6.856;2022-12-26T01:22:26;4.97;;;4.57;;
3712;SDS011;1872;51.406;6.856;2022-12-26T01:24:52;5.60;;;4.47;;
3712;SDS011;1872;51.406;6.856;2022-12-26T01:27:23;4.70;;;4.20;;
3712;SDS011;1872;51.406;6.856;2022-12-26T01:29:50;6.20;;;5.13;;
3712;SDS011;1872;51.406;6.856;2022-12-26T01:32:17;6.63;;;4.90;;
3712;SDS011;1872;51.406;6.856;2022-12-26T01:34:43;6.57;;;4.90;;
3712;SDS011;1872;51.406;6.856;2022-12-26T01:37:09;7.90;;;6.30;;
3712;SDS011;1872;51.406;6.856;2022-12-26T01:39:40;7.37;;;6.47;;
3712;SDS011;1872;51.406;6.856;2022-12-26T01:42:12;8.40;;;6.77;;
3712;SDS011;1872;51.406;6.856;2022-12-26T01:48:12;7.47;;;5.90;;
3712;SDS011;1872;51.406;6.856;2022-12-26T01:50:26;7.10;;;6.27;;
3712;SDS011;1872;51.406;6.856;2022-12-26T01:53:18;6.57;;;5.87;;
3712;SDS011;1872;51.406;6.856;2022-12-26T01:55:55;8.30;;;5.30;;
3712;SDS011;1872;51.406;6.856;2022-12-26T01:58:32;6.20;;;5.60;;
3712;SDS011;1872;51.406;6.856;2022-12-26T02:01:02;6.60;;;5.37;;
3712;SDS011;1872;51.406;6.856;2022-12-26T02:03:30;8.17;;;5.60;;
3712;SDS011;1872;51.406;6.856;2022-12-26T02:06:15;6.33;;;5.50;;
3712;SDS011;1872;51.406;6.856;2022-12-26T02:08:41;6.63;;;4.83;;
3712;SDS011;1872;51.406;6.856;2022-12-26T02:11:17;6.77;;;5.57;;
3712;SDS011;1872;51.406;6.856;2022-12-26T02:13:46;6.23;;;5.63;;
3712;SDS011;1872;51.406;6.856;2022-12-26T02:16:13;6.57;;;5.43;;
3712;SDS011;1872;51.406;6.856;2022-12-26T02:18:41;7.00;;;5.83;;
3712;SDS011;1872;51.406;6.856;2022-12-26T02:32:02;5.07;;;4.40;;
3712;SDS011;1872;51.406;6.856;2022-12-26T02:37:44;5.20;;;4.67;;
3712;SDS011;1872;51.406;6.856;2022-12-26T02:40:44;4.77;;;4.37;;
3712;SDS011;1872;51.406;6.856;2022-12-26T02:43:24;6.50;;;5.23;;
3712;SDS011;1872;51.406;6.856;2022-12-26T02:55:12;7.73;;;6.40;;
3712;SDS011;1872;51.406;6.856;2022-12-26T02:58:11;7.30;;;6.50;;
3712;SDS011;1872;51.406;6.856;2022-12-26T03:01:02;7.50;;;6.80;;
3712;SDS011;1872;51.406;6.856;2022-12-26T03:03:53;8.23;;;6.90;;
3712;SDS011;1872;51.406;6.856;2022-12-26T03:06:40;8.40;;;7.20;;
3712;SDS011;1872;51.406;6.856;2022-12-26T03:09:35;8.87;;;7.40;;
3712;SDS011;1872;51.406;6.856;2022-12-26T03:15:22;9.03;;;7.93;;
3712;SDS011;1872;51.406;6.856;2022-12-26T03:17:52;9.87;;;7.27;;
3712;SDS011;1872;51.406;6.856;2022-12-26T03:20:26;9.70;;;8.10;;
3712;SDS011;1872;51.406;6.856;2022-12-26T03:28:24;8.67;;;7.60;;
3712;SDS011;1872;51.406;6.856;2022-12-26T03:30:50;7.80;;;6.97;;
3712;SDS011;1872;51.406;6.856;2022-12-26T03:33:24;10.10;;;8.10;;
3712;SDS011;1872;51.406;6.856;2022-12-26T03:39:08;12.07;;;8.33;;
3712;SDS011;1872;51.406;6.856;2022-12-26T03:42:08;10.20;;;7.77;;
3712;SDS011;1872;51.406;6.856;2022-12-26T03:44:58;10.13;;;7.67;;
3712;SDS011;1872;51.406;6.856;2022-12-26T03:48:30;8.93;;;6.93;;
3712;SDS011;1872;51.406;6.856;2022-12-26T03:51:38;7.60;;;6.80;;
3712;SDS011;1872;51.406;6.856;2022-12-26T03:54:40;8.10;;;6.03;;
3712;SDS011;1872;51.406;6.856;2022-12-26T03:57:54;6.40;;;5.50;;
3712;SDS011;1872;51.406;6.856;2022-12-26T04:00:50;7.17;;;6.47;;
3712;SDS011;1872;51.406;6.856;2022-12-26T04:03:38;5.77;;;5.20;;
3712;SDS011;1872;51.406;6.856;2022-12-26T04:06:25;7.80;;;7.00;;
3712;SDS011;1872;51.406;6.856;2022-12-26T04:09:18;9.23;;;7.17;;
3712;SDS011;1872;51.406;6.856;2022-12-26T04:12:13;8.80;;;7.23;;
3712;SDS011;1872;51.406;6.856;2022-12-26T04:15:05;11.03;;;8.43;;
3712;SDS011;1872;51.406;6.856;2022-12-26T04:17:58;11.90;;;9.53;;
3712;SDS011;1872;51.406;6.856;2022-12-26T04:20:51;9.17;;;7.70;;
3712;SDS011;1872;51.406;6.856;2022-12-26T04:23:29;8.27;;;7.37;;
3712;SDS011;1872;51.406;6.856;2022-12-26T04:26:39;7.77;;;6.73;;
3712;SDS011;1872;51.406;6.856;2022-12-26T04:29:28;7.70;;;6.90;;
3712;SDS011;1872;51.406;6.856;2022-12-26T04:32:16;7.40;;;6.13;;
3712;SDS011;1872;51.406;6.856;2022-12-26T04:38:05;8.43;;;7.13;;
3712;SDS011;1872;51.406;6.856;2022-12-26T04:40:53;7.30;;;6.07;;
3712;SDS011;1872;51.406;6.856;2022-12-26T04:43:40;7.80;;;6.60;;
3712;SDS011;1872;51.406;6.856;2022-12-26T04:46:26;8.30;;;6.70;;
3712;SDS011;1872;51.406;6.856;2022-12-26T04:48:54;9.40;;;7.27;;
3712;SDS011;1872;51.406;6.856;2022-12-26T04:51:39;8.27;;;7.30;;
3712;SDS011;1872;51.406;6.856;2022-12-26T04:54:05;8.23;;;6.97;;
3712;SDS011;1872;51.406;6.856;2022-12-26T04:56:31;6.90;;;6.20;;
3712;SDS011;1872;51.406;6.856;2022-12-26T04:58:57;7.57;;;6.50;;
3712;SDS011;1872;51.406;6.856;2022-12-26T05:01:23;8.03;;;6.50;;
3712;SDS011;1872;51.406;6.856;2022-12-26T05:04:12;9.37;;;6.50;;
3712;SDS011;1872;51.406;6.856;2022-12-26T05:06:58;8.83;;;6.23;;
3712;SDS011;1872;51.406;6.856;2022-12-26T05:09:44;6.03;;;5.13;;
3712;SDS011;1872;51.406;6.856;2022-12-26T05:12:10;7.63;;;6.80;;
3712;SDS011;1872;51.406;6.856;2022-12-26T05:14:36;8.53;;;5.67;;
3712;SDS011;1872;51.406;6.856;2022-12-26T05:17:02;7.57;;;5.67;;
3712;SDS011;1872;51.406;6.856;2022-12-26T05:19:48;7.20;;;6.10;;
3712;SDS011;1872;51.406;6.856;2022-12-26T05:22:32;7.20;;;6.10;;
3712;SDS011;1872;51.406;6.856;2022-12-26T05:25:22;7.03;;;5.43;;
3712;SDS011;1872;51.406;6.856;2022-12-26T05:28:13;7.20;;;6.20;;
3712;SDS011;1872;51.406;6.856;2022-12-26T05:30:59;7.27;;;6.07;;
3712;SDS011;1872;51.406;6.856;2022-12-26T05:33:26;8.07;;;6.50;;
3712;SDS011;1872;51.406;6.856;2022-12-26T05:36:10;6.47;;;5.70;;
3712;SDS011;1872;51.406;6.856;2022-12-26T05:38:37;6.93;;;5.20;;
3712;SDS011;1872;51.406;6.856;2022-12-26T05:41:03;6.30;;;5.13;;
3712;SDS011;1872;51.406;6.856;2022-12-26T05:43:29;5.90;;;5.23;;
3712;SDS011;1872;51.406;6.856;2022-12-26T05:45:55;6.03;;;5.03;;
3712;SDS011;1872;51.406;6.856;2022-12-26T05:48:21;6.50;;;5.87;;
3712;SDS011;1872;51.406;6.856;2022-12-26T05:50:46;6.70;;;5.30;;
3712;SDS011;1872;51.406;6.856;2022-12-26T05:53:12;7.20;;;5.23;;
3712;SDS011;1872;51.406;6.856;2022-12-26T05:55:38;7.00;;;5.30;;
3712;SDS011;1872;51.406;6.856;2022-12-26T05:58:04;6.23;;;4.97;;
3712;SDS011;1872;51.406;6.856;2022-12-26T06:00:30;6.80;;;5.40;;
3712;SDS011;1872;51.406;6.856;2022-12-26T06:02:57;6.60;;;5.60;;
3712;SDS011;1872;51.406;6.856;2022-12-26T06:05:26;17.70;;;6.40;;
3712;SDS011;1872;51.406;6.856;2022-12-26T06:07:52;6.03;;;5.43;;
3712;SDS011;1872;51.406;6.856;2022-12-26T06:10:17;5.43;;;4.70;;
3712;SDS011;1872;51.406;6.856;2022-12-26T06:12:43;6.70;;;5.50;;
3712;SDS011;1872;51.406;6.856;2022-12-26T06:15:09;7.77;;;6.33;;
3712;SDS011;1872;51.406;6.856;2022-12-26T06:17:34;6.43;;;5.33;;
3712;SDS011;1872;51.406;6.856;2022-12-26T06:20:00;6.50;;;5.50;;
3712;SDS011;1872;51.406;6.856;2022-12-26T06:22:27;6.80;;;5.90;;
3712;SDS011;1872;51.406;6.856;2022-12-26T06:24:53;6.70;;;5.60;;
3712;SDS011;1872;51.406;6.856;2022-12-26T06:27:19;6.87;;;6.03;;
3712;SDS011;1872;51.406;6.856;2022-12-26T06:29:44;9.30;;;6.07;;
3712;SDS011;1872;51.406;6.856;2022-12-26T06:32:10;7.77;;;6.07;;
3712;SDS011;1872;51.406;6.856;2022-12-26T06:34:39;6.70;;;5.40;;
3712;SDS011;1872;51.406;6.856;2022-12-26T06:37:08;6.07;;;5.47;;
3712;SDS011;1872;51.406;6.856;2022-12-26T06:39:33;7.03;;;5.50;;
3712;SDS011;1872;51.406;6.856;2022-12-26T06:41:59;7.17;;;5.90;;
3712;SDS011;1872;51.406;6.856;2022-12-26T06:44:24;8.30;;;6.00;;
3712;SDS011;1872;51.406;6.856;2022-12-26T06:46:50;6.67;;;5.67;;
3712;SDS011;1872;51.406;6.856;2022-12-26T06:49:16;6.70;;;5.77;;
3712;SDS011;1872;51.406;6.856;2022-12-26T06:51:41;8.80;;;6.43;;
3712;SDS011;1872;51.406;6.856;2022-12-26T06:54:09;9.17;;;7.17;;
3712;SDS011;1872;51.406;6.856;2022-12-26T06:56:35;6.47;;;5.57;;
3712;SDS011;1872;51.406;6.856;2022-12-26T06:59:01;5.40;;;4.90;;
3712;SDS011;1872;51.406;6.856;2022-12-26T07:01:29;7.10;;;5.70;;
3712;SDS011;1872;51.406;6.856;2022-12-26T07:03:57;8.13;;;5.70;;
3712;SDS011;1872;51.406;6.856;2022-12-26T07:06:30;7.63;;;5.57;;
3712;SDS011;1872;51.406;6.856;2022-12-26T07:08:58;6.27;;;5.30;;
3712;SDS011;1872;51.406;6.856;2022-12-26T07:11:29;7.53;;;5.67;;
3712;SDS011;1872;51.406;6.856;2022-12-26T07:13:56;13.43;;;5.80;;
3712;SDS011;1872;51.406;6.856;2022-12-26T07:16:22;7.60;;;6.40;;
3712;SDS011;1872;51.406;6.856;2022-12-26T07:18:50;7.50;;;5.30;;
3712;SDS011;1872;51.406;6.856;2022-12-26T07:21:17;7.87;;;6.17;;
3712;SDS011;1872;51.406;6.856;2022-12-26T07:23:44;6.87;;;5.60;;
3712;SDS011;1872;51.406;6.856;2022-12-26T07:26:09;6.60;;;5.50;;
3712;SDS011;1872;51.406;6.856;2022-12-26T07:28:35;7.23;;;5.40;;
3712;SDS011;1872;51.406;6.856;2022-12-26T07:31:01;8.10;;;6.60;;
3712;SDS011;1872;51.406;6.856;2022-12-26T07:33:27;7.00;;;5.80;;
3712;SDS011;1872;51.406;6.856;2022-12-26T07:35:53;8.37;;;5.63;;
3712;SDS011;1872;51.406;6.856;2022-12-26T07:38:27;7.03;;;6.20;;
3712;SDS011;1872;51.406;6.856;2022-12-26T07:40:55;8.00;;;6.37;;
3712;SDS011;1872;51.406;6.856;2022-12-26T07:43:21;7.90;;;6.03;;
3712;SDS011;1872;51.406;6.856;2022-12-26T07:45:47;7.50;;;5.90;;
3712;SDS011;1872;51.406;6.856;2022-12-26T07:48:13;7.53;;;5.85;;
3712;SDS011;1872;51.406;6.856;2022-12-26T07:50:38;8.07;;;6.50;;
3712;SDS011;1872;51.406;6.856;2022-12-26T07:53:04;7.50;;;5.83;;
3712;SDS011;1872;51.406;6.856;2022-12-26T07:55:30;7.80;;;5.77;;
3712;SDS011;1872;51.406;6.856;2022-12-26T07:57:55;6.70;;;5.93;;
3712;SDS011;1872;51.406;6.856;2022-12-26T08:00:21;6.50;;;5.80;;
3712;SDS011;1872;51.406;6.856;2022-12-26T08:02:47;5.50;;;5.00;;
3712;SDS011;1872;51.406;6.856;2022-12-26T08:05:14;6.23;;;5.63;;
3712;SDS011;1872;51.406;6.856;2022-12-26T08:07:41;8.63;;;4.93;;
3712;SDS011;1872;51.406;6.856;2022-12-26T08:10:07;4.87;;;4.37;;
3712;SDS011;1872;51.406;6.856;2022-12-26T08:12:34;4.90;;;4.50;;
3712;SDS011;1872;51.406;6.856;2022-12-26T08:14:59;4.50;;;4.10;;
3712;SDS011;1872;51.406;6.856;2022-12-26T08:17:25;4.50;;;4.10;;
3712;SDS011;1872;51.406;6.856;2022-12-26T08:19:51;4.97;;;4.30;;
3712;SDS011;1872;51.406;6.856;2022-12-26T08:22:16;4.40;;;4.00;;
3712;SDS011;1872;51.406;6.856;2022-12-26T08:24:42;4.40;;;4.00;;
3712;SDS011;1872;51.406;6.856;2022-12-26T08:27:08;4.70;;;4.30;;
3712;SDS011;1872;51.406;6.856;2022-12-26T08:29:34;4.47;;;4.07;;
3712;SDS011;1872;51.406;6.856;2022-12-26T08:32:00;6.13;;;4.90;;
3712;SDS011;1872;51.406;6.856;2022-12-26T08:34:30;4.63;;;4.00;;
3712;SDS011;1872;51.406;6.856;2022-12-26T08:36:56;4.60;;;3.30;;
3712;SDS011;1872;51.406;6.856;2022-12-26T08:39:24;4.30;;;3.93;;
3712;SDS011;1872;51.406;6.856;2022-12-26T08:41:49;3.90;;;3.50;;
3712;SDS011;1872;51.406;6.856;2022-12-26T08:44:15;4.17;;;3.50;;
3712;SDS011;1872;51.406;6.856;2022-12-26T08:46:42;3.60;;;3.30;;
3712;SDS011;1872;51.406;6.856;2022-12-26T08:49:08;3.27;;;3.07;;
3712;SDS011;1872;51.406;6.856;2022-12-26T08:51:34;5.13;;;3.80;;
3712;SDS011;1872;51.406;6.856;2022-12-26T08:53:59;2.90;;;2.70;;
3712;SDS011;1872;51.406;6.856;2022-12-26T08:56:25;3.27;;;2.97;;
3712;SDS011;1872;51.406;6.856;2022-12-26T08:58:52;3.40;;;3.13;;
3712;SDS011;1872;51.406;6.856;2022-12-26T09:01:20;4.23;;;3.00;;
3712;SDS011;1872;51.406;6.856;2022-12-26T09:03:56;3.00;;;2.70;;
3712;SDS011;1872;51.406;6.856;2022-12-26T09:06:24;3.50;;;2.83;;
3712;SDS011;1872;51.406;6.856;2022-12-26T09:08:50;3.00;;;2.70;;
3712;SDS011;1872;51.406;6.856;2022-12-26T09:11:21;2.90;;;2.70;;
3712;SDS011;1872;51.406;6.856;2022-12-26T09:13:50;2.63;;;2.43;;
3712;SDS011;1872;51.406;6.856;2022-12-26T09:16:18;3.10;;;2.80;;
3712;SDS011;1872;51.406;6.856;2022-12-26T09:18:46;2.87;;;2.57;;
3712;SDS011;1872;51.406;6.856;2022-12-26T09:21:13;2.63;;;2.40;;
3712;SDS011;1872;51.406;6.856;2022-12-26T09:23:41;3.50;;;2.27;;
3712;SDS011;1872;51.406;6.856;2022-12-26T09:26:08;2.20;;;2.10;;
3712;SDS011;1872;51.406;6.856;2022-12-26T09:28:36;2.57;;;2.37;;
3712;SDS011;1872;51.406;6.856;2022-12-26T09:31:03;3.23;;;2.33;;
3712;SDS011;1872;51.406;6.856;2022-12-26T09:33:29;3.50;;;3.20;;
3712;SDS011;1872;51.406;6.856;2022-12-26T09:36:06;3.63;;;2.40;;
3712;SDS011;1872;51.406;6.856;2022-12-26T09:38:33;2.20;;;2.10;;
3712;SDS011;1872;51.406;6.856;2022-12-26T09:41:06;3.33;;;2.30;;
3712;SDS011;1872;51.406;6.856;2022-12-26T09:49:32;3.00;;;2.80;;
3712;SDS011;1872;51.406;6.856;2022-12-26T09:52:03;2.87;;;2.63;;
3712;SDS011;1872;51.406;6.856;2022-12-26T09:54:41;2.43;;;2.23;;
3712;SDS011;1872;51.406;6.856;2022-12-26T09:57:14;2.20;;;2.00;;
3712;SDS011;1872;51.406;6.856;2022-12-26T10:00:04;2.60;;;2.40;;
3712;SDS011;1872;51.406;6.856;2022-12-26T10:02:29;2.27;;;2.10;;
3712;SDS011;1872;51.406;6.856;2022-12-26T10:04:55;2.20;;;2.10;;
3712;SDS011;1872;51.406;6.856;2022-12-26T10:07:40;5.17;;;2.50;;
3712;SDS011;1872;51.406;6.856;2022-12-26T10:10:17;4.40;;;2.80;;
3712;SDS011;1872;51.406;6.856;2022-12-26T10:13:09;1.70;;;1.60;;
3712;SDS011;1872;51.406;6.856;2022-12-26T10:23:43;3.80;;;2.33;;
3712;SDS011;1872;51.406;6.856;2022-12-26T10:26:14;2.40;;;2.20;;
3712;SDS011;1872;51.406;6.856;2022-12-26T10:31:30;2.33;;;2.23;;
3712;SDS011;1872;51.406;6.856;2022-12-26T10:34:07;3.27;;;2.10;;
3712;SDS011;1872;51.406;6.856;2022-12-26T10:37:02;3.87;;;2.40;;
3712;SDS011;1872;51.406;6.856;2022-12-26T10:39:44;2.30;;;2.10;;
3712;SDS011;1872;51.406;6.856;2022-12-26T10:42:37;2.33;;;2.13;;
3712;SDS011;1872;51.406;6.856;2022-12-26T10:45:15;2.20;;;2.00;;
3712;SDS011;1872;51.406;6.856;2022-12-26T10:47:43;4.43;;;2.30;;
3712;SDS011;1872;51.406;6.856;2022-12-26T10:50:18;2.83;;;2.57;;
3712;SDS011;1872;51.406;6.856;2022-12-26T10:52:48;2.83;;;2.63;;
3712;SDS011;1872;51.406;6.856;2022-12-26T10:55:16;3.07;;;2.77;;
3712;SDS011;1872;51.406;6.856;2022-12-26T10:57:45;2.80;;;1.90;;
3712;SDS011;1872;51.406;6.856;2022-12-26T11:05:40;2.57;;;2.17;;
3712;SDS011;1872;51.406;6.856;2022-12-26T11:08:22;2.50;;;2.30;;
3712;SDS011;1872;51.406;6.856;2022-12-26T11:11:04;3.80;;;2.70;;
3712;SDS011;1872;51.406;6.856;2022-12-26T11:13:45;3.00;;;2.60;;
3712;SDS011;1872;51.406;6.856;2022-12-26T11:16:24;2.30;;;1.80;;
3712;SDS011;1872;51.406;6.856;2022-12-26T11:18:53;2.73;;;2.30;;
3712;SDS011;1872;51.406;6.856;2022-12-26T11:21:21;2.00;;;1.70;;
3712;SDS011;1872;51.406;6.856;2022-12-26T11:24:10;3.77;;;2.33;;
3712;SDS011;1872;51.406;6.856;2022-12-26T11:26:45;2.10;;;2.00;;
3712;SDS011;1872;51.406;6.856;2022-12-26T11:34:45;3.00;;;2.10;;
3712;SDS011;1872;51.406;6.856;2022-12-26T11:37:22;4.30;;;2.43;;
3712;SDS011;1872;51.406;6.856;2022-12-26T11:39:54;2.10;;;1.90;;
3712;SDS011;1872;51.406;6.856;2022-12-26T11:42:22;2.63;;;2.20;;
3712;SDS011;1872;51.406;6.856;2022-12-26T11:44:49;2.72;;;2.17;;
3712;SDS011;1872;51.406;6.856;2022-12-26T11:47:20;2.50;;;2.30;;
3712;SDS011;1872;51.406;6.856;2022-12-26T11:50:07;2.43;;;2.10;;
3712;SDS011;1872;51.406;6.856;2022-12-26T11:55:30;3.40;;;2.17;;
3712;SDS011;1872;51.406;6.856;2022-12-26T12:03:11;2.30;;;2.10;;
3712;SDS011;1872;51.406;6.856;2022-12-26T12:18:48;2.97;;;2.40;;
3712;SDS011;1872;51.406;6.856;2022-12-26T12:29:57;3.43;;;2.90;;
3712;SDS011;1872;51.406;6.856;2022-12-26T12:33:06;4.50;;;3.20;;
3712;SDS011;1872;51.406;6.856;2022-12-26T12:41:05;4.10;;;3.30;;
3712;SDS011;1872;51.406;6.856;2022-12-26T12:51:54;2.00;;;1.90;;
3712;SDS011;1872;51.406;6.856;2022-12-26T13:00:18;3.10;;;2.07;;
3712;SDS011;1872;51.406;6.856;2022-12-26T13:06:05;2.10;;;2.00;;
3712;SDS011;1872;51.406;6.856;2022-12-26T13:11:20;2.10;;;2.00;;
3712;SDS011;1872;51.406;6.856;2022-12-26T13:13:51;2.37;;;2.20;;
3712;SDS011;1872;51.406;6.856;2022-12-26T13:16:38;3.33;;;3.03;;
3712;SDS011;1872;51.406;6.856;2022-12-26T13:19:21;2.37;;;2.17;;
3712;SDS011;1872;51.406;6.856;2022-12-26T13:21:50;3.53;;;2.33;;
3712;SDS011;1872;51.406;6.856;2022-12-26T13:24:33;5.50;;;2.30;;
3712;SDS011;1872;51.406;6.856;2022-12-26T13:27:19;2.97;;;2.70;;
3712;SDS011;1872;51.406;6.856;2022-12-26T13:29:48;4.80;;;2.67;;
3712;SDS011;1872;51.406;6.856;2022-12-26T13:34:51;3.10;;;2.80;;
3712;SDS011;1872;51.406;6.856;2022-12-26T13:39:57;4.25;;;2.95;;
3712;SDS011;1872;51.406;6.856;2022-12-26T13:42:35;3.83;;;3.03;;
3712;SDS011;1872;51.406;6.856;2022-12-26T13:55:49;6.43;;;3.40;;
3712;SDS011;1872;51.406;6.856;2022-12-26T14:02:08;8.33;;;3.80;;
3712;SDS011;1872;51.406;6.856;2022-12-26T14:15:52;9.90;;;4.33;;
3712;SDS011;1872;51.406;6.856;2022-12-26T14:27:41;8.10;;;4.73;;
3712;SDS011;1872;51.406;6.856;2022-12-26T14:30:04;10.87;;;5.30;;
3712;SDS011;1872;51.406;6.856;2022-12-26T14:35:31;9.07;;;4.33;;
3712;SDS011;1872;51.406;6.856;2022-12-26T14:38:04;11.23;;;5.07;;
3712;SDS011;1872;51.406;6.856;2022-12-26T14:41:26;8.23;;;6.73;;
3712;SDS011;1872;51.406;6.856;2022-12-26T14:47:02;6.57;;;4.30;;
3712;SDS011;1872;51.406;6.856;2022-12-26T14:51:56;9.23;;;4.43;;
3712;SDS011;1872;51.406;6.856;2022-12-26T14:54:52;4.93;;;4.40;;
3712;SDS011;1872;51.406;6.856;2022-12-26T15:02:47;10.60;;;4.50;;
3712;SDS011;1872;51.406;6.856;2022-12-26T15:05:31;12.87;;;4.07;;
3712;SDS011;1872;51.406;6.856;2022-12-26T15:10:58;5.10;;;4.43;;
3712;SDS011;1872;51.406;6.856;2022-12-26T15:31:23;5.40;;;4.07;;
3712;SDS011;1872;51.406;6.856;2022-12-26T15:53:39;6.47;;;4.40;;
3712;SDS011;1872;51.406;6.856;2022-12-26T16:01:57;7.80;;;5.05;;
3712;SDS011;1872;51.406;6.856;2022-12-26T16:04:40;7.90;;;4.50;;
3712;SDS011;1872;51.406;6.856;2022-12-26T16:09:54;5.30;;;4.10;;
3712;SDS011;1872;51.406;6.856;2022-12-26T16:12:25;4.33;;;3.57;;
3712;SDS011;1872;51.406;6.856;2022-12-26T16:17:38;6.40;;;3.80;;
3712;SDS011;1872;51.406;6.856;2022-12-26T16:20:18;5.73;;;3.63;;
3712;SDS011;1872;51.406;6.856;2022-12-26T16:23:11;10.90;;;4.10;;
3712;SDS011;1872;51.406;6.856;2022-12-26T16:25:44;5.70;;;3.50;;
3712;SDS011;1872;51.406;6.856;2022-12-26T16:28:25;2.90;;;2.70;;
3712;SDS011;1872;51.406;6.856;2022-12-26T16:30:57;4.10;;;3.50;;
3712;SDS011;1872;51.406;6.856;2022-12-26T16:33:23;5.10;;;3.60;;
3712;SDS011;1872;51.406;6.856;2022-12-26T16:35:53;4.13;;;3.20;;
3712;SDS011;1872;51.406;6.856;2022-12-26T16:38:26;5.73;;;3.00;;
3712;SDS011;1872;51.406;6.856;2022-12-26T16:40:54;4.53;;;2.80;;
3712;SDS011;1872;51.406;6.856;2022-12-26T16:43:29;4.90;;;3.90;;
3712;SDS011;1872;51.406;6.856;2022-12-26T16:45:59;7.40;;;3.90;;
3712;SDS011;1872;51.406;6.856;2022-12-26T16:48:29;4.50;;;3.70;;
3712;SDS011;1872;51.406;6.856;2022-12-26T16:50:59;4.70;;;3.00;;
3712;SDS011;1872;51.406;6.856;2022-12-26T16:53:40;3.30;;;3.00;;
3712;SDS011;1872;51.406;6.856;2022-12-26T16:56:18;6.13;;;3.20;;
3712;SDS011;1872;51.406;6.856;2022-12-26T17:01:38;4.07;;;2.80;;
3712;SDS011;1872;51.406;6.856;2022-12-26T17:06:39;5.40;;;3.10;;
3712;SDS011;1872;51.406;6.856;2022-12-26T17:09:13;3.37;;;3.00;;
3712;SDS011;1872;51.406;6.856;2022-12-26T17:11:59;3.77;;;3.07;;
3712;SDS011;1872;51.406;6.856;2022-12-26T17:14:35;3.43;;;3.00;;
3712;SDS011;1872;51.406;6.856;2022-12-26T17:17:05;4.80;;;3.30;;
3712;SDS011;1872;51.406;6.856;2022-12-26T17:19:33;3.10;;;2.83;;
3712;SDS011;1872;51.406;6.856;2022-12-26T17:24:38;7.70;;;3.20;;
3712;SDS011;1872;51.406;6.856;2022-12-26T17:27:23;3.03;;;2.83;;
3712;SDS011;1872;51.406;6.856;2022-12-26T17:34:50;5.23;;;3.20;;
3712;SDS011;1872;51.406;6.856;2022-12-26T17:37:18;4.10;;;3.60;;
3712;SDS011;1872;51.406;6.856;2022-12-26T17:39:59;4.13;;;2.63;;
3712;SDS011;1872;51.406;6.856;2022-12-26T17:42:37;5.87;;;3.33;;
3712;SDS011;1872;51.406;6.856;2022-12-26T17:45:23;4.83;;;3.17;;
3712;SDS011;1872;51.406;6.856;2022-12-26T17:47:51;3.83;;;3.20;;
3712;SDS011;1872;51.406;6.856;2022-12-26T17:50:17;6.67;;;3.30;;
3712;SDS011;1872;51.406;6.856;2022-12-26T17:52:44;3.23;;;3.03;;
3712;SDS011;1872;51.406;6.856;2022-12-26T17:55:14;3.70;;;2.70;;
3712;SDS011;1872;51.406;6.856;2022-12-26T17:57:48;3.20;;;2.70;;
3712;SDS011;1872;51.406;6.856;2022-12-26T18:00:15;5.50;;;2.70;;
3712;SDS011;1872;51.406;6.856;2022-12-26T18:02:43;4.33;;;3.07;;
3712;SDS011;1872;51.406;6.856;2022-12-26T18:05:09;3.97;;;3.20;;
3712;SDS011;1872;51.406;6.856;2022-12-26T18:07:35;2.80;;;2.57;;
3712;SDS011;1872;51.406;6.856;2022-12-26T18:10:01;3.03;;;2.73;;
3712;SDS011;1872;51.406;6.856;2022-12-26T18:12:28;6.77;;;3.13;;
3712;SDS011;1872;51.406;6.856;2022-12-26T18:14:53;3.73;;;3.23;;
3712;SDS011;1872;51.406;6.856;2022-12-26T18:17:19;6.50;;;2.87;;
3712;SDS011;1872;51.406;6.856;2022-12-26T18:19:45;3.87;;;2.90;;
3712;SDS011;1872;51.406;6.856;2022-12-26T18:22:13;3.03;;;2.70;;
3712;SDS011;1872;51.406;6.856;2022-12-26T18:24:40;5.73;;;3.20;;
3712;SDS011;1872;51.406;6.856;2022-12-26T18:27:06;3.23;;;2.97;;
3712;SDS011;1872;51.406;6.856;2022-12-26T18:29:40;6.13;;;3.73;;
3712;SDS011;1872;51.406;6.856;2022-12-26T18:32:18;3.60;;;3.00;;
3712;SDS011;1872;51.406;6.856;2022-12-26T18:34:48;3.33;;;3.03;;
3712;SDS011;1872;51.406;6.856;2022-12-26T18:37:15;5.30;;;3.87;;
3712;SDS011;1872;51.406;6.856;2022-12-26T18:39:41;3.77;;;3.47;;
3712;SDS011;1872;51.406;6.856;2022-12-26T18:42:09;3.40;;;3.00;;
3712;SDS011;1872;51.406;6.856;2022-12-26T18:44:37;4.17;;;3.30;;
3712;SDS011;1872;51.406;6.856;2022-12-26T18:47:03;4.47;;;4.07;;
3712;SDS011;1872;51.406;6.856;2022-12-26T18:49:28;4.60;;;3.20;;
3712;SDS011;1872;51.406;6.856;2022-12-26T18:51:54;6.20;;;3.80;;
3712;SDS011;1872;51.406;6.856;2022-12-26T18:54:20;4.70;;;4.00;;
3712;SDS011;1872;51.406;6.856;2022-12-26T18:56:45;5.70;;;4.03;;
3712;SDS011;1872;51.406;6.856;2022-12-26T18:59:11;4.67;;;3.83;;
3712;SDS011;1872;51.406;6.856;2022-12-26T19:01:36;5.20;;;4.33;;
3712;SDS011;1872;51.406;6.856;2022-12-26T19:04:02;4.53;;;3.40;;
3712;SDS011;1872;51.406;6.856;2022-12-26T19:06:28;5.10;;;3.50;;
3712;SDS011;1872;51.406;6.856;2022-12-26T19:08:56;4.00;;;3.23;;
3712;SDS011;1872;51.406;6.856;2022-12-26T19:11:22;9.70;;;4.20;;
3712;SDS011;1872;51.406;6.856;2022-12-26T19:13:48;4.93;;;3.47;;
3712;SDS011;1872;51.406;6.856;2022-12-26T19:16:14;5.50;;;3.30;;
3712;SDS011;1872;51.406;6.856;2022-12-26T19:18:39;3.03;;;2.80;;
3712;SDS011;1872;51.406;6.856;2022-12-26T19:21:14;9.10;;;3.43;;
3712;SDS011;1872;51.406;6.856;2022-12-26T19:23:41;3.77;;;3.33;;
3712;SDS011;1872;51.406;6.856;2022-12-26T19:26:10;3.23;;;2.50;;
3712;SDS011;1872;51.406;6.856;2022-12-26T19:28:38;5.23;;;2.97;;
3712;SDS011;1872;51.406;6.856;2022-12-26T19:31:09;4.20;;;3.00;;
3712;SDS011;1872;51.406;6.856;2022-12-26T19:33:36;6.00;;;3.00;;
3712;SDS011;1872;51.406;6.856;2022-12-26T19:36:02;6.70;;;3.63;;
3712;SDS011;1872;51.406;6.856;2022-12-26T19:38:29;8.83;;;4.33;;
3712;SDS011;1872;51.406;6.856;2022-12-26T19:43:54;7.17;;;3.07;;
3712;SDS011;1872;51.406;6.856;2022-12-26T19:46:20;4.33;;;3.20;;
3712;SDS011;1872;51.406;6.856;2022-12-26T19:48:46;3.77;;;3.37;;
3712;SDS011;1872;51.406;6.856;2022-12-26T19:51:13;9.23;;;4.10;;
3712;SDS011;1872;51.406;6.856;2022-12-26T19:53:40;6.97;;;5.00;;